createdAt,value
2023-02-11T00:00:04.469Z,63.30
2023-02-11T00:00:14.463Z,57.90
2023-02-11T00:00:24.461Z,63.10
2023-02-11T00:00:34.457Z,68.30
2023-02-11T00:00:44.467Z,71.40
2023-02-11T00:00:54.476Z,65.50
2023-02-11T00:01:04.454Z,67.90
2023-02-11T00:01:15.173Z,70.60
2023-02-11T00:01:24.458Z,70.00
2023-02-11T00:01:34.457Z,66.10
2023-02-11T00:01:44.456Z,61.70
2023-02-11T00:01:54.551Z,61.90
2023-02-11T00:02:04.486Z,61.30
2023-02-11T00:02:15.256Z,66.90
2023-02-11T00:02:24.461Z,60.30
2023-02-11T00:02:34.519Z,64.30
2023-02-11T00:02:47.494Z,62.50
2023-02-11T00:02:54.464Z,71.60
2023-02-11T00:03:04.641Z,69.50
2023-02-11T00:03:14.479Z,69.30
2023-02-11T00:03:24.467Z,57.30
2023-02-11T00:03:34.501Z,61.40
2023-02-11T00:03:44.502Z,61.10
2023-02-11T00:03:54.467Z,73.10
2023-02-11T00:04:04.511Z,69.80
2023-02-11T00:04:14.464Z,63.60
2023-02-11T00:04:24.451Z,56.30
2023-02-11T00:04:34.448Z,56.30
2023-02-11T00:04:44.445Z,62.90
2023-02-11T00:04:54.443Z,66.00
2023-02-11T00:05:04.444Z,61.80
2023-02-11T00:05:14.441Z,57.40
2023-02-11T00:05:25.173Z,49.90
2023-02-11T00:05:34.434Z,46.80
2023-02-11T00:05:44.444Z,51.20
2023-02-11T00:05:54.438Z,61.20
2023-02-11T00:06:04.521Z,71.70
2023-02-11T00:06:14.440Z,75.90
2023-02-11T00:06:24.480Z,72.00
2023-02-11T00:06:34.434Z,72.20
2023-02-11T00:06:44.449Z,67.00
2023-02-11T00:06:54.438Z,73.10
2023-02-11T00:07:04.523Z,72.80
2023-02-11T00:07:15.168Z,71.80
2023-02-11T00:07:24.437Z,71.30
2023-02-11T00:07:34.434Z,72.90
2023-02-11T00:07:44.434Z,69.90
2023-02-11T00:07:54.451Z,65.60
2023-02-11T00:08:04.432Z,62.90
2023-02-11T00:08:14.724Z,65.90
2023-02-11T00:08:24.502Z,65.30
2023-02-11T00:08:34.424Z,70.40
2023-02-11T00:08:44.439Z,71.40
2023-02-11T00:08:54.432Z,76.00
2023-02-11T00:09:04.425Z,62.50
2023-02-11T00:09:14.428Z,59.70
2023-02-11T00:09:24.435Z,53.20
2023-02-11T00:09:34.457Z,55.00
2023-02-11T00:09:44.439Z,50.30
2023-02-11T00:09:54.429Z,58.10
2023-02-11T00:10:04.428Z,68.00
2023-02-11T00:10:14.427Z,79.20
2023-02-11T00:10:24.420Z,75.50
2023-02-11T00:10:35.171Z,66.00
2023-02-11T00:10:44.426Z,63.80
2023-02-11T00:10:54.430Z,63.00
2023-02-11T00:11:04.480Z,73.00
2023-02-11T00:11:14.414Z,72.90
2023-02-11T00:11:24.414Z,68.90
2023-02-11T00:11:34.421Z,55.90
2023-02-11T00:11:44.423Z,49.20
2023-02-11T00:11:54.493Z,61.90
2023-02-11T00:12:04.426Z,67.90
2023-02-11T00:12:14.422Z,74.60
2023-02-11T00:12:24.454Z,66.40
2023-02-11T00:12:34.423Z,63.20
2023-02-11T00:12:44.408Z,50.80
2023-02-11T00:12:54.423Z,50.50
2023-02-11T00:13:04.422Z,53.80
2023-02-11T00:13:15.182Z,59.90
2023-02-11T00:13:24.459Z,59.20
2023-02-11T00:13:34.428Z,61.70
2023-02-11T00:13:44.410Z,55.30
2023-02-11T00:13:54.400Z,59.90
2023-02-11T00:14:04.400Z,61.30
2023-02-11T00:14:14.404Z,64.80
2023-02-11T00:14:24.399Z,62.70
2023-02-11T00:14:34.407Z,55.30
2023-02-11T00:14:44.403Z,54.20
2023-02-11T00:14:54.419Z,52.60
2023-02-11T00:15:04.417Z,53.30
2023-02-11T00:15:15.179Z,58.90
2023-02-11T00:15:24.399Z,65.00
2023-02-11T00:15:34.426Z,63.80
2023-02-11T00:15:44.404Z,64.40
2023-02-11T00:15:54.409Z,55.80
2023-02-11T00:16:04.398Z,57.30
2023-02-11T00:16:14.432Z,48.50
2023-02-11T00:16:24.473Z,48.30
2023-02-11T00:16:34.527Z,47.40
2023-02-11T00:16:44.523Z,47.10
2023-02-11T00:16:54.456Z,53.40
2023-02-11T00:17:04.402Z,52.00
2023-02-11T00:17:14.387Z,58.70
2023-02-11T00:17:24.393Z,59.70
2023-02-11T00:17:34.401Z,60.50
2023-02-11T00:17:44.390Z,68.10
2023-02-11T00:17:54.390Z,64.00
2023-02-11T00:18:04.450Z,61.30
2023-02-11T00:18:14.386Z,48.10
2023-02-11T00:18:24.417Z,49.20
2023-02-11T00:18:34.500Z,57.40
2023-02-11T00:18:44.387Z,76.40
2023-02-11T00:18:54.393Z,77.40
2023-02-11T00:19:04.381Z,81.90
2023-02-11T00:19:14.384Z,74.50
2023-02-11T00:19:25.189Z,74.70
2023-02-11T00:19:34.380Z,73.40
2023-02-11T00:19:44.380Z,72.00
2023-02-11T00:19:54.379Z,68.00
2023-02-11T00:20:06.625Z,61.40
2023-02-11T00:20:14.391Z,55.80
2023-02-11T00:20:24.381Z,59.60
2023-02-11T00:20:34.385Z,47.80
2023-02-11T00:20:44.373Z,56.40
2023-02-11T00:20:54.380Z,51.60
2023-02-11T00:21:04.377Z,65.10
2023-02-11T00:21:14.378Z,63.10
2023-02-11T00:21:24.383Z,64.50
2023-02-11T00:21:34.381Z,57.20
2023-02-11T00:21:44.378Z,45.20
2023-02-11T00:21:54.393Z,45.40
2023-02-11T00:22:04.382Z,55.20
2023-02-11T00:22:15.192Z,69.10
2023-02-11T00:22:24.363Z,72.40
2023-02-11T00:22:34.386Z,69.50
2023-02-11T00:22:44.373Z,62.00
2023-02-11T00:22:54.367Z,57.90
2023-02-11T00:23:04.364Z,53.10
2023-02-11T00:23:14.364Z,56.20
2023-02-11T00:23:24.367Z,56.20
2023-02-11T00:23:34.419Z,60.70
2023-02-11T00:23:44.498Z,60.70
2023-02-11T00:23:55.178Z,65.40
2023-02-11T00:24:04.375Z,69.30
2023-02-11T00:24:14.372Z,74.00
2023-02-11T00:24:24.361Z,63.00
2023-02-11T00:24:34.362Z,56.40
2023-02-11T00:24:44.380Z,52.30
2023-02-11T00:24:54.388Z,57.30
2023-02-11T00:25:04.432Z,52.80
2023-02-11T00:25:14.359Z,51.40
2023-02-11T00:25:24.370Z,53.60
2023-02-11T00:25:34.357Z,55.80
2023-02-11T00:25:44.357Z,54.50
2023-02-11T00:25:54.349Z,57.80
2023-02-11T00:26:04.353Z,62.30
2023-02-11T00:26:14.380Z,63.70
2023-02-11T00:26:25.184Z,58.40
2023-02-11T00:26:34.353Z,46.90
2023-02-11T00:26:44.350Z,42.80
2023-02-11T00:26:54.351Z,47.50
2023-02-11T00:27:04.354Z,61.60
2023-02-11T00:27:14.349Z,63.30
2023-02-11T00:27:25.256Z,57.10
2023-02-11T00:27:34.357Z,46.80
2023-02-11T00:27:44.371Z,49.30
2023-02-11T00:27:54.558Z,48.60
2023-02-11T00:28:04.397Z,57.70
2023-02-11T00:28:14.380Z,56.90
2023-02-11T00:28:24.395Z,59.20
2023-02-11T00:28:34.423Z,55.80
2023-02-11T00:28:44.337Z,49.00
2023-02-11T00:28:55.190Z,49.00
2023-02-11T00:29:04.365Z,53.20
2023-02-11T00:29:15.226Z,64.70
2023-02-11T00:29:24.334Z,68.40
2023-02-11T00:29:34.365Z,64.40
2023-02-11T00:29:44.333Z,57.90
2023-02-11T00:29:54.408Z,60.70
2023-02-11T00:30:05.181Z,62.10
2023-02-11T00:30:14.333Z,71.50
2023-02-11T00:30:24.535Z,67.10
2023-02-11T00:30:34.509Z,64.90
2023-02-11T00:30:44.467Z,62.30
2023-02-11T00:30:54.362Z,67.80
2023-02-11T00:31:04.446Z,67.20
2023-02-11T00:31:14.464Z,61.00
2023-02-11T00:31:24.458Z,53.60
2023-02-11T00:31:34.506Z,53.40
2023-02-11T00:31:44.434Z,58.10
2023-02-11T00:31:54.498Z,61.20
2023-02-11T00:32:04.530Z,71.60
2023-02-11T00:32:14.514Z,63.60
2023-02-11T00:32:24.318Z,58.90
2023-02-11T00:32:34.351Z,46.20
2023-02-11T00:32:44.332Z,56.00
2023-02-11T00:32:54.329Z,53.30
2023-02-11T00:33:04.326Z,55.80
2023-02-11T00:33:15.285Z,55.60
2023-02-11T00:33:25.195Z,58.30
2023-02-11T00:33:34.365Z,61.30
2023-02-11T00:33:44.326Z,50.70
2023-02-11T00:33:55.179Z,51.30
2023-02-11T00:34:04.365Z,41.30
2023-02-11T00:34:14.314Z,44.30
2023-02-11T00:34:24.322Z,42.60
2023-02-11T00:34:34.333Z,54.10
2023-02-11T00:34:44.410Z,52.80
2023-02-11T00:34:54.310Z,52.80
2023-02-11T00:35:04.323Z,42.80
2023-02-11T00:35:14.307Z,48.10
2023-02-11T00:35:24.308Z,51.30
2023-02-11T00:35:34.312Z,51.80
2023-02-11T00:35:44.307Z,56.00
2023-02-11T00:35:54.307Z,62.40
2023-02-11T00:36:04.310Z,70.40
2023-02-11T00:36:14.374Z,56.40
2023-02-11T00:36:24.322Z,42.80
2023-02-11T00:36:34.310Z,43.10
2023-02-11T00:36:44.314Z,46.50
2023-02-11T00:36:54.313Z,56.30
2023-02-11T00:37:04.324Z,53.70
2023-02-11T00:37:14.341Z,53.60
2023-02-11T00:37:24.299Z,44.20
2023-02-11T00:37:34.305Z,45.00
2023-02-11T00:37:44.296Z,43.10
2023-02-11T00:37:54.332Z,53.00
2023-02-11T00:38:04.326Z,54.20
2023-02-11T00:38:14.294Z,54.30
2023-02-11T00:38:24.305Z,48.10
2023-02-11T00:38:34.296Z,48.30
2023-02-11T00:38:44.302Z,57.50
2023-02-11T00:38:54.312Z,63.70
2023-02-11T00:39:04.390Z,59.30
2023-02-11T00:39:14.402Z,49.40
2023-02-11T00:39:24.302Z,41.20
2023-02-11T00:39:34.312Z,50.80
2023-02-11T00:39:44.294Z,54.10
2023-02-11T00:39:54.294Z,57.90
2023-02-11T00:40:06.648Z,61.40
2023-02-11T00:40:14.284Z,59.00
2023-02-11T00:40:25.182Z,65.70
2023-02-11T00:40:34.286Z,58.60
2023-02-11T00:40:44.319Z,60.30
2023-02-11T00:40:54.282Z,47.50
2023-02-11T00:41:04.309Z,44.60
2023-02-11T00:41:14.306Z,40.40
2023-02-11T00:41:24.291Z,41.40
2023-02-11T00:41:34.283Z,39.40
2023-02-11T00:41:44.282Z,41.00
2023-02-11T00:41:54.292Z,45.20
2023-02-11T00:42:04.303Z,50.30
2023-02-11T00:42:14.282Z,62.60
2023-02-11T00:42:24.286Z,62.80
2023-02-11T00:42:34.284Z,59.50
2023-02-11T00:42:44.273Z,52.30
2023-02-11T00:42:54.292Z,46.50
2023-02-11T00:43:05.207Z,49.30
2023-02-11T00:43:14.386Z,39.40
2023-02-11T00:43:24.273Z,37.70
2023-02-11T00:43:34.271Z,37.10
2023-02-11T00:43:47.228Z,42.00
2023-02-11T00:43:54.326Z,50.10
2023-02-11T00:44:04.302Z,46.20
2023-02-11T00:44:14.295Z,47.80
2023-02-11T00:44:24.340Z,49.90
2023-02-11T00:44:34.297Z,50.80
2023-02-11T00:44:44.271Z,50.60
2023-02-11T00:44:54.271Z,48.40
2023-02-11T00:45:04.288Z,41.00
2023-02-11T00:45:14.268Z,41.20
2023-02-11T00:45:24.275Z,41.30
2023-02-11T00:45:34.270Z,43.00
2023-02-11T00:45:44.281Z,50.10
2023-02-11T00:45:54.313Z,46.80
2023-02-11T00:46:04.280Z,49.90
2023-02-11T00:46:14.334Z,43.80
2023-02-11T00:46:24.426Z,47.80
2023-02-11T00:46:34.333Z,51.00
2023-02-11T00:46:44.341Z,42.20
2023-02-11T00:46:54.259Z,43.90
2023-02-11T00:47:04.260Z,42.20
2023-02-11T00:47:14.305Z,48.70
2023-02-11T00:47:25.172Z,47.10
2023-02-11T00:47:34.260Z,57.30
2023-02-11T00:47:44.266Z,51.90
2023-02-11T00:47:54.259Z,46.60
2023-02-11T00:48:04.254Z,39.30
2023-02-11T00:48:14.367Z,37.70
2023-02-11T00:48:24.255Z,37.20
2023-02-11T00:48:34.282Z,36.30
2023-02-11T00:48:44.266Z,38.10
2023-02-11T00:48:54.264Z,39.40
2023-02-11T00:49:04.250Z,40.10
2023-02-11T00:49:14.254Z,44.70
2023-02-11T00:49:24.271Z,48.00
2023-02-11T00:49:34.302Z,53.20
2023-02-11T00:49:44.313Z,46.00
2023-02-11T00:49:54.242Z,43.00
2023-02-11T00:50:04.252Z,48.70
2023-02-11T00:50:15.202Z,49.40
2023-02-11T00:50:24.243Z,49.80
2023-02-11T00:50:34.241Z,43.20
2023-02-11T00:50:44.265Z,39.60
2023-02-11T00:50:54.247Z,40.10
2023-02-11T00:51:04.246Z,40.30
2023-02-11T00:51:14.345Z,41.60
2023-02-11T00:51:24.251Z,39.50
2023-02-11T00:51:35.197Z,37.60
2023-02-11T00:51:45.172Z,37.40
2023-02-11T00:51:55.169Z,37.90
2023-02-11T00:52:04.246Z,37.90
2023-02-11T00:52:14.239Z,39.20
2023-02-11T00:52:24.256Z,39.70
2023-02-11T00:52:34.238Z,45.80
2023-02-11T00:52:44.239Z,49.00
2023-02-11T00:52:54.260Z,46.30
2023-02-11T00:53:04.231Z,41.00
2023-02-11T00:53:14.231Z,41.80
2023-02-11T00:53:24.237Z,45.40
2023-02-11T00:53:34.248Z,51.80
2023-02-11T00:53:44.225Z,53.50
2023-02-11T00:53:54.245Z,54.90
2023-02-11T00:54:04.228Z,54.80
2023-02-11T00:54:14.298Z,45.10
2023-02-11T00:54:24.315Z,45.40
2023-02-11T00:54:34.220Z,40.20
2023-02-11T00:54:44.268Z,41.20
2023-02-11T00:54:54.223Z,38.90
2023-02-11T00:55:04.239Z,38.00
2023-02-11T00:55:14.239Z,40.20
2023-02-11T00:55:24.226Z,38.70
2023-02-11T00:55:34.245Z,38.80
2023-02-11T00:55:44.255Z,38.20
2023-02-11T00:55:54.231Z,41.70
2023-02-11T00:56:04.246Z,47.00
2023-02-11T00:56:14.217Z,42.80
2023-02-11T00:56:24.242Z,40.20
2023-02-11T00:56:34.215Z,38.90
2023-02-11T00:56:44.214Z,37.80
2023-02-11T00:56:54.245Z,40.10
2023-02-11T00:57:04.225Z,37.90
2023-02-11T00:57:14.315Z,37.70
2023-02-11T00:57:24.219Z,35.70
2023-02-11T00:57:34.221Z,37.70
2023-02-11T00:57:44.231Z,39.10
2023-02-11T00:57:54.216Z,50.10
2023-02-11T00:58:04.224Z,49.20
2023-02-11T00:58:14.206Z,47.10
2023-02-11T00:58:24.227Z,40.40
2023-02-11T00:58:35.246Z,42.60
2023-02-11T00:58:44.208Z,45.60
2023-02-11T00:58:54.342Z,50.70
2023-02-11T00:59:04.248Z,53.80
2023-02-11T00:59:14.200Z,47.80
2023-02-11T00:59:24.201Z,49.40
2023-02-11T00:59:34.210Z,40.70
2023-02-11T00:59:44.203Z,38.30
2023-02-11T00:59:54.765Z,38.20
2023-02-11T01:00:04.231Z,38.60
2023-02-11T01:00:14.239Z,39.60
2023-02-11T01:00:24.196Z,39.70
2023-02-11T01:00:34.201Z,39.10
2023-02-11T01:00:44.204Z,39.40
2023-02-11T01:00:54.213Z,40.30
2023-02-11T01:01:04.267Z,45.80
2023-02-11T01:01:14.257Z,51.70
2023-02-11T01:01:24.366Z,53.60
2023-02-11T01:01:34.243Z,42.70
2023-02-11T01:01:44.306Z,38.30
2023-02-11T01:01:54.194Z,37.80
2023-02-11T01:02:04.237Z,40.70
2023-02-11T01:02:14.191Z,43.30
2023-02-11T01:02:24.190Z,39.20
2023-02-11T01:02:34.193Z,37.80
2023-02-11T01:02:45.204Z,38.20
2023-02-11T01:02:54.195Z,40.70
2023-02-11T01:03:04.197Z,40.30
2023-02-11T01:03:14.200Z,40.80
2023-02-11T01:03:24.202Z,41.70
2023-02-11T01:03:34.190Z,40.80
2023-02-11T01:03:44.224Z,44.10
2023-02-11T01:03:54.202Z,39.20
2023-02-11T01:04:04.283Z,38.60
2023-02-11T01:04:14.182Z,35.50
2023-02-11T01:04:24.194Z,36.40
2023-02-11T01:04:34.212Z,38.10
2023-02-11T01:04:44.176Z,39.50
2023-02-11T01:04:54.363Z,51.50
2023-02-11T01:05:04.415Z,52.80
2023-02-11T01:05:14.237Z,58.80
2023-02-11T01:05:24.299Z,44.50
2023-02-11T01:05:34.362Z,41.20
2023-02-11T01:05:44.180Z,41.20
2023-02-11T01:05:54.199Z,54.90
2023-02-11T01:06:04.184Z,58.20
2023-02-11T01:06:14.176Z,57.40
2023-02-11T01:06:24.183Z,53.30
2023-02-11T01:06:34.174Z,40.50
2023-02-11T01:06:44.256Z,38.40
2023-02-11T01:06:54.203Z,37.90
2023-02-11T01:07:04.185Z,39.80
2023-02-11T01:07:14.169Z,42.60
2023-02-11T01:07:24.169Z,43.90
2023-02-11T01:07:34.283Z,38.30
2023-02-11T01:07:44.170Z,38.90
2023-02-11T01:07:54.195Z,38.50
2023-02-11T01:08:04.164Z,49.30
2023-02-11T01:08:14.166Z,45.30
2023-02-11T01:08:24.283Z,42.10
2023-02-11T01:08:34.172Z,36.50
2023-02-11T01:08:44.176Z,36.90
2023-02-11T01:08:54.172Z,39.40
2023-02-11T01:09:04.162Z,40.90
2023-02-11T01:09:14.161Z,46.10
2023-02-11T01:09:24.217Z,43.80
2023-02-11T01:09:34.168Z,41.80
2023-02-11T01:09:44.695Z,42.30
2023-02-11T01:09:54.170Z,37.60
2023-02-11T01:10:04.183Z,38.40
2023-02-11T01:10:14.208Z,37.30
2023-02-11T01:10:24.181Z,38.00
2023-02-11T01:10:34.213Z,37.20
2023-02-11T01:10:44.282Z,37.80
2023-02-11T01:10:54.153Z,43.90
2023-02-11T01:11:04.163Z,43.80
2023-02-11T01:11:14.160Z,40.50
2023-02-11T01:11:24.186Z,38.70
2023-02-11T01:11:34.158Z,39.80
2023-02-11T01:11:44.153Z,39.50
2023-02-11T01:11:54.164Z,39.80
2023-02-11T01:12:04.164Z,37.70
2023-02-11T01:12:14.165Z,38.00
2023-02-11T01:12:24.172Z,38.40
2023-02-11T01:12:36.378Z,39.30
2023-02-11T01:12:44.172Z,38.90
2023-02-11T01:12:54.157Z,38.90
2023-02-11T01:13:04.153Z,37.20
2023-02-11T01:13:14.149Z,39.00
2023-02-11T01:13:24.153Z,39.00
2023-02-11T01:13:34.171Z,42.00
2023-02-11T01:13:44.177Z,38.80
2023-02-11T01:13:54.688Z,43.00
2023-02-11T01:14:04.191Z,41.10
2023-02-11T01:14:14.143Z,43.10
2023-02-11T01:14:24.214Z,36.90
2023-02-11T01:14:34.189Z,36.90
2023-02-11T01:14:44.234Z,35.60
2023-02-11T01:14:54.137Z,37.10
2023-02-11T01:15:04.221Z,37.70
2023-02-11T01:15:14.144Z,37.00
2023-02-11T01:15:24.269Z,35.40
2023-02-11T01:15:34.281Z,34.90
2023-02-11T01:15:44.180Z,36.00
2023-02-11T01:15:54.348Z,36.90
2023-02-11T01:16:04.277Z,37.50
2023-02-11T01:16:14.258Z,37.40
2023-02-11T01:16:24.213Z,38.50
2023-02-11T01:16:34.142Z,37.20
2023-02-11T01:16:44.767Z,38.00
2023-02-11T01:16:54.136Z,36.20
2023-02-11T01:17:04.142Z,46.10
2023-02-11T01:17:14.241Z,45.40
2023-02-11T01:17:24.142Z,44.30
2023-02-11T01:17:34.132Z,37.90
2023-02-11T01:17:44.131Z,42.40
2023-02-11T01:17:54.138Z,48.60
2023-02-11T01:18:04.217Z,43.20
2023-02-11T01:18:14.129Z,39.30
2023-02-11T01:18:24.209Z,38.20
2023-02-11T01:18:34.132Z,38.30
2023-02-11T01:18:44.147Z,37.80
2023-02-11T01:18:54.704Z,37.80
2023-02-11T01:19:04.130Z,38.40
2023-02-11T01:19:14.121Z,38.50
2023-02-11T01:19:24.148Z,36.40
2023-02-11T01:19:34.700Z,38.30
2023-02-11T01:19:44.130Z,40.10
2023-02-11T01:19:54.149Z,40.00
2023-02-11T01:20:04.140Z,37.40
2023-02-11T01:20:14.123Z,36.30
2023-02-11T01:20:24.237Z,37.20
2023-02-11T01:20:34.230Z,41.50
2023-02-11T01:20:44.120Z,38.40
2023-02-11T01:20:54.690Z,39.20
2023-02-11T01:21:04.145Z,36.40
2023-02-11T01:21:14.122Z,38.50
2023-02-11T01:21:24.179Z,37.10
2023-02-11T01:21:34.114Z,36.40
2023-02-11T01:21:46.742Z,33.80
2023-02-11T01:21:54.153Z,34.50
2023-02-11T01:22:04.123Z,33.70
2023-02-11T01:22:14.276Z,36.50
2023-02-11T01:22:24.170Z,37.20
2023-02-11T01:22:34.108Z,39.40
2023-02-11T01:22:44.138Z,37.90
2023-02-11T01:22:54.114Z,37.50
2023-02-11T01:23:04.128Z,46.10
2023-02-11T01:23:14.128Z,46.70
2023-02-11T01:23:24.683Z,50.90
2023-02-11T01:23:34.129Z,37.40
2023-02-11T01:23:44.159Z,38.10
2023-02-11T01:23:54.120Z,37.80
2023-02-11T01:24:04.107Z,46.20
2023-02-11T01:24:14.128Z,36.00
2023-02-11T01:24:24.112Z,34.50
2023-02-11T01:24:34.122Z,34.50
2023-02-11T01:24:44.681Z,34.10
2023-02-11T01:24:54.144Z,35.40
2023-02-11T01:25:04.676Z,36.70
2023-02-11T01:25:14.128Z,37.30
2023-02-11T01:25:24.113Z,36.40
2023-02-11T01:25:34.107Z,35.70
2023-02-11T01:25:44.175Z,36.90
2023-02-11T01:25:54.095Z,37.70
2023-02-11T01:26:04.097Z,38.10
2023-02-11T01:26:14.138Z,39.00
2023-02-11T01:26:24.125Z,38.60
2023-02-11T01:26:34.156Z,38.60
2023-02-11T01:26:44.095Z,37.40
2023-02-11T01:26:54.123Z,37.90
2023-02-11T01:27:04.217Z,36.60
2023-02-11T01:27:14.115Z,36.70
2023-02-11T01:27:24.145Z,36.20
2023-02-11T01:27:34.112Z,35.20
2023-02-11T01:27:44.089Z,35.10
2023-02-11T01:27:54.748Z,34.30
2023-02-11T01:28:04.136Z,36.50
2023-02-11T01:28:14.157Z,36.90
2023-02-11T01:28:24.217Z,37.00
2023-02-11T01:28:34.176Z,35.30
2023-02-11T01:28:44.089Z,34.30
2023-02-11T01:28:54.078Z,34.80
2023-02-11T01:29:04.080Z,39.60
2023-02-11T01:29:14.086Z,44.30
2023-02-11T01:29:24.702Z,42.70
2023-02-11T01:29:34.080Z,36.40
2023-02-11T01:29:44.091Z,36.00
2023-02-11T01:29:54.101Z,35.70
2023-02-11T01:30:04.084Z,37.20
2023-02-11T01:30:14.080Z,37.50
2023-02-11T01:30:24.103Z,37.00
2023-02-11T01:30:34.078Z,38.20
2023-02-11T01:30:44.748Z,42.80
2023-02-11T01:30:54.171Z,44.40
2023-02-11T01:31:04.208Z,40.60
2023-02-11T01:31:14.750Z,36.80
2023-02-11T01:31:24.175Z,37.80
2023-02-11T01:31:34.227Z,36.90
2023-02-11T01:31:44.156Z,37.70
2023-02-11T01:31:54.103Z,37.60
2023-02-11T01:32:04.184Z,37.30
2023-02-11T01:32:14.265Z,36.70
2023-02-11T01:32:24.681Z,35.90
2023-02-11T01:32:34.097Z,35.50
2023-02-11T01:32:44.070Z,34.80
2023-02-11T01:32:54.066Z,35.10
2023-02-11T01:33:04.089Z,37.40
2023-02-11T01:33:14.685Z,35.70
2023-02-11T01:33:24.065Z,35.80
2023-02-11T01:33:34.150Z,35.20
2023-02-11T01:33:44.096Z,36.40
2023-02-11T01:33:54.062Z,34.70
2023-02-11T01:34:04.060Z,34.50
2023-02-11T01:34:14.082Z,36.00
2023-02-11T01:34:24.064Z,38.80
2023-02-11T01:34:34.086Z,41.60
2023-02-11T01:34:44.056Z,37.60
2023-02-11T01:34:54.127Z,37.30
2023-02-11T01:35:04.069Z,36.70
2023-02-11T01:35:14.073Z,35.10
2023-02-11T01:35:24.051Z,34.70
2023-02-11T01:35:34.065Z,35.10
2023-02-11T01:35:44.063Z,37.10
2023-02-11T01:35:54.054Z,37.90
2023-02-11T01:36:04.111Z,37.90
2023-02-11T01:36:14.053Z,37.30
2023-02-11T01:36:24.184Z,36.10
2023-02-11T01:36:34.062Z,37.00
2023-02-11T01:36:44.057Z,38.00
2023-02-11T01:36:54.060Z,40.50
2023-02-11T01:37:04.090Z,38.90
2023-02-11T01:37:14.156Z,37.00
2023-02-11T01:37:24.048Z,36.90
2023-02-11T01:37:34.050Z,36.30
2023-02-11T01:37:44.116Z,37.20
2023-02-11T01:37:54.044Z,37.10
2023-02-11T01:38:04.040Z,37.00
2023-02-11T01:38:14.069Z,37.30
2023-02-11T01:38:24.054Z,37.00
2023-02-11T01:38:34.055Z,36.90
2023-02-11T01:38:44.053Z,35.90
2023-02-11T01:38:54.111Z,35.40
2023-02-11T01:39:04.688Z,35.50
2023-02-11T01:39:14.044Z,38.10
2023-02-11T01:39:24.038Z,35.80
2023-02-11T01:39:34.047Z,40.50
2023-02-11T01:39:44.037Z,34.90
2023-02-11T01:39:54.049Z,34.80
2023-02-11T01:40:04.044Z,33.60
2023-02-11T01:40:14.051Z,33.70
2023-02-11T01:40:24.028Z,34.10
2023-02-11T01:40:34.127Z,36.10
2023-02-11T01:40:44.043Z,38.10
2023-02-11T01:40:54.025Z,37.40
2023-02-11T01:41:04.054Z,37.20
2023-02-11T01:41:14.118Z,37.00
2023-02-11T01:41:24.035Z,45.40
2023-02-11T01:41:34.027Z,35.30
2023-02-11T01:41:44.047Z,34.60
2023-02-11T01:41:54.705Z,34.40
2023-02-11T01:42:04.031Z,35.30
2023-02-11T01:42:14.036Z,35.70
2023-02-11T01:42:24.029Z,36.20
2023-02-11T01:42:34.035Z,35.60
2023-02-11T01:42:44.069Z,35.80
2023-02-11T01:42:54.018Z,36.00
2023-02-11T01:43:04.026Z,37.40
2023-02-11T01:43:14.019Z,38.10
2023-02-11T01:43:24.035Z,38.00
2023-02-11T01:43:34.073Z,36.00
2023-02-11T01:43:44.117Z,34.80
2023-02-11T01:43:54.035Z,35.80
2023-02-11T01:44:04.032Z,36.10
2023-02-11T01:44:14.097Z,35.40
2023-02-11T01:44:24.018Z,34.10
2023-02-11T01:44:34.052Z,34.50
2023-02-11T01:44:44.688Z,36.70
2023-02-11T01:44:54.053Z,37.70
2023-02-11T01:45:04.013Z,37.40
2023-02-11T01:45:14.017Z,37.40
2023-02-11T01:45:24.013Z,36.30
2023-02-11T01:45:34.023Z,36.00
2023-02-11T01:45:44.004Z,36.10
2023-02-11T01:45:54.031Z,42.20
2023-02-11T01:46:04.095Z,47.20
2023-02-11T01:46:14.130Z,38.60
2023-02-11T01:46:24.203Z,36.30
2023-02-11T01:46:34.202Z,36.80
2023-02-11T01:46:44.104Z,36.30
2023-02-11T01:46:54.128Z,36.20
2023-02-11T01:47:04.002Z,35.00
2023-02-11T01:47:14.004Z,35.90
2023-02-11T01:47:24.005Z,36.50
2023-02-11T01:47:34.104Z,36.90
2023-02-11T01:47:44.003Z,36.80
2023-02-11T01:47:54.004Z,42.90
2023-02-11T01:48:03.998Z,46.80
2023-02-11T01:48:14.005Z,36.70
2023-02-11T01:48:23.999Z,37.10
2023-02-11T01:48:33.997Z,36.90
2023-02-11T01:48:43.996Z,41.50
2023-02-11T01:48:54.130Z,37.70
2023-02-11T01:49:04.044Z,37.80
2023-02-11T01:49:14.153Z,37.90
2023-02-11T01:49:24.074Z,35.60
2023-02-11T01:49:34.029Z,34.50
2023-02-11T01:49:44.009Z,34.30
2023-02-11T01:49:53.993Z,34.50
2023-02-11T01:50:03.993Z,35.40
2023-02-11T01:50:14.030Z,34.60
2023-02-11T01:50:24.014Z,36.30
2023-02-11T01:50:33.987Z,35.00
2023-02-11T01:50:44.000Z,35.60
2023-02-11T01:50:53.992Z,34.90
2023-02-11T01:51:03.991Z,36.90
2023-02-11T01:51:14.011Z,35.70
2023-02-11T01:51:24.688Z,35.90
2023-02-11T01:51:34.057Z,34.80
2023-02-11T01:51:44.049Z,36.00
2023-02-11T01:51:53.979Z,37.00
2023-02-11T01:52:03.986Z,37.30
2023-02-11T01:52:13.999Z,36.40
2023-02-11T01:52:24.018Z,36.50
2023-02-11T01:52:33.987Z,36.20
2023-02-11T01:52:43.975Z,36.40
2023-02-11T01:52:53.990Z,36.80
2023-02-11T01:53:04.687Z,39.70
2023-02-11T01:53:13.973Z,39.50
2023-02-11T01:53:23.990Z,37.40
2023-02-11T01:53:34.692Z,37.50
2023-02-11T01:53:43.976Z,37.80
2023-02-11T01:53:53.984Z,38.50
2023-02-11T01:54:04.014Z,37.10
2023-02-11T01:54:13.986Z,37.50
2023-02-11T01:54:24.049Z,37.20
2023-02-11T01:54:33.981Z,37.40
2023-02-11T01:54:43.977Z,38.20
2023-02-11T01:54:53.991Z,36.50
2023-02-11T01:55:03.989Z,41.70
2023-02-11T01:55:13.979Z,36.50
2023-02-11T01:55:23.992Z,36.00
2023-02-11T01:55:33.965Z,35.20
2023-02-11T01:55:43.969Z,36.80
2023-02-11T01:55:54.713Z,37.70
2023-02-11T01:56:03.970Z,39.90
2023-02-11T01:56:13.978Z,36.40
2023-02-11T01:56:23.964Z,35.50
2023-02-11T01:56:33.961Z,36.30
2023-02-11T01:56:44.709Z,36.30
2023-02-11T01:56:56.804Z,37.50
2023-02-11T01:57:03.958Z,37.40
2023-02-11T01:57:13.979Z,38.50
2023-02-11T01:57:23.962Z,38.60
2023-02-11T01:57:33.964Z,39.30
2023-02-11T01:57:43.962Z,37.80
2023-02-11T01:57:53.971Z,44.50
2023-02-11T01:58:04.154Z,43.50
2023-02-11T01:58:16.706Z,39.50
2023-02-11T01:58:23.952Z,36.30
2023-02-11T01:58:33.957Z,35.00
2023-02-11T01:58:44.046Z,34.90
2023-02-11T01:58:53.973Z,34.60
2023-02-11T01:59:03.960Z,37.00
2023-02-11T01:59:14.100Z,36.80
2023-02-11T01:59:23.949Z,37.20
2023-02-11T01:59:33.963Z,35.40
2023-02-11T01:59:43.957Z,36.00
2023-02-11T01:59:53.945Z,35.40
2023-02-11T02:00:04.700Z,35.30
2023-02-11T02:00:13.968Z,36.40
2023-02-11T02:00:23.954Z,37.00
2023-02-11T02:00:33.958Z,39.50
2023-02-11T02:00:43.963Z,36.30
2023-02-11T02:00:53.966Z,35.50
2023-02-11T02:01:03.953Z,36.50
2023-02-11T02:01:13.994Z,36.10
2023-02-11T02:01:23.967Z,36.90
2023-02-11T02:01:34.100Z,35.50
2023-02-11T02:01:43.975Z,34.70
2023-02-11T02:01:54.034Z,35.10
2023-02-11T02:02:03.955Z,35.10
2023-02-11T02:02:13.979Z,35.30
2023-02-11T02:02:24.014Z,35.00
2023-02-11T02:02:33.932Z,36.70
2023-02-11T02:02:43.959Z,39.80
2023-02-11T02:02:54.697Z,40.70
2023-02-11T02:03:03.941Z,39.70
2023-02-11T02:03:13.974Z,38.20
2023-02-11T02:03:23.968Z,36.40
2023-02-11T02:03:34.010Z,37.50
2023-02-11T02:03:44.008Z,37.60
2023-02-11T02:03:54.043Z,38.10
2023-02-11T02:04:03.984Z,37.20
2023-02-11T02:04:13.987Z,36.60
2023-02-11T02:04:23.942Z,35.50
2023-02-11T02:04:33.938Z,34.90
2023-02-11T02:04:43.951Z,34.40
2023-02-11T02:04:53.950Z,36.30
2023-02-11T02:05:03.934Z,37.40
2023-02-11T02:05:13.928Z,42.80
2023-02-11T02:05:23.938Z,41.30
2023-02-11T02:05:33.938Z,37.00
2023-02-11T02:05:44.014Z,35.70
2023-02-11T02:05:53.921Z,35.60
2023-02-11T02:06:03.930Z,35.20
2023-02-11T02:06:13.939Z,34.80
2023-02-11T02:06:23.992Z,34.30
2023-02-11T02:06:33.934Z,36.20
2023-02-11T02:06:43.922Z,36.40
2023-02-11T02:06:53.926Z,36.90
2023-02-11T02:07:04.266Z,35.40
2023-02-11T02:07:13.919Z,37.00
2023-02-11T02:07:23.916Z,37.90
2023-02-11T02:07:33.919Z,42.00
2023-02-11T02:07:43.965Z,44.60
2023-02-11T02:07:53.917Z,39.40
2023-02-11T02:08:03.914Z,37.90
2023-02-11T02:08:13.939Z,38.40
2023-02-11T02:08:23.933Z,39.20
2023-02-11T02:08:33.907Z,37.70
2023-02-11T02:08:46.711Z,36.90